Time;durP1;ratioP1;P1;durP2;ratioP2;P2;SDS_P1;SDS_P2;PMS_P1;PMS_P2;Temp;Humidity;BMP_temperature;BMP_pressure;BME280_temperature;BME280_humidity;BME280_pressure;Samples;Min_cycle;Max_cycle;Signal;HPM_P1;HPM_P2
2023/02/01 00:00:19;;;;;;;0.40;0.40;;;;;;;;;;5079704;28;20051;-72
2023/02/01 00:02:48;;;;;;;0.45;0.45;;;;;;;;;;5072465;28;20048;-71
2023/02/01 00:05:18;;;;;;;0.20;0.20;;;;;;;;;;5069744;28;20072;-72
2023/02/01 00:07:48;;;;;;;0.77;0.40;;;;;;;;;;5070250;28;20131;-71
2023/02/01 00:10:17;;;;;;;3.60;0.63;;;;;;;;;;5075920;28;20054;-72
2023/02/01 00:12:46;;;;;;;0.90;0.47;;;;;;;;;;5070097;28;20048;-71
2023/02/01 00:15:14;;;;;;;4.03;0.88;;;;;;;;;;5077029;28;20045;-71
2023/02/01 00:17:42;;;;;;;1.08;0.65;;;;;;;;;;5074600;28;20054;-72
2023/02/01 00:20:11;;;;;;;1.65;1.02;;;;;;;;;;5075503;28;20048;-71
2023/02/01 00:22:41;;;;;;;1.05;1.02;;;;;;;;;;5080590;28;20083;-71
2023/02/01 00:25:09;;;;;;;1.00;0.50;;;;;;;;;;5073727;28;20044;-71
2023/02/01 00:27:38;;;;;;;2.90;0.98;;;;;;;;;;5066507;28;20059;-71
2023/02/01 00:30:07;;;;;;;0.90;0.68;;;;;;;;;;5070483;28;20099;-71
2023/02/01 00:32:35;;;;;;;1.25;0.80;;;;;;;;;;5076589;28;20051;-71
2023/02/01 00:35:03;;;;;;;1.00;0.68;;;;;;;;;;5065664;28;20040;-71
2023/02/01 00:37:31;;;;;;;1.00;0.55;;;;;;;;;;5067199;28;20048;-71
2023/02/01 00:40:01;;;;;;;1.00;0.73;;;;;;;;;;5073339;28;20532;-71
2023/02/01 00:42:30;;;;;;;1.17;0.55;;;;;;;;;;5071321;28;20060;-71
2023/02/01 00:44:58;;;;;;;0.73;0.70;;;;;;;;;;5072828;28;20046;-71
2023/02/01 00:47:26;;;;;;;0.57;0.57;;;;;;;;;;5065740;28;20052;-71
2023/02/01 00:49:54;;;;;;;0.57;0.57;;;;;;;;;;5071753;28;20147;-71
2023/02/01 00:52:23;;;;;;;0.32;0.32;;;;;;;;;;5069811;28;20048;-71
2023/02/01 00:54:51;;;;;;;1.17;0.52;;;;;;;;;;5071384;28;20059;-71
2023/02/01 00:57:21;;;;;;;1.58;0.77;;;;;;;;;;5069808;28;20055;-71
2023/02/01 00:59:49;;;;;;;1.35;1.25;;;;;;;;;;5068582;28;20052;-72
2023/02/01 01:02:17;;;;;;;0.52;0.52;;;;;;;;;;5070681;28;20151;-71
2023/02/01 01:04:46;;;;;;;1.48;1.00;;;;;;;;;;5073465;28;20076;-71
2023/02/01 01:07:14;;;;;;;1.35;0.82;;;;;;;;;;5073579;28;20403;-72
2023/02/01 01:09:42;;;;;;;1.77;1.45;;;;;;;;;;5074511;28;20048;-71
2023/02/01 01:12:11;;;;;;;1.05;0.88;;;;;;;;;;5071193;28;20501;-71
2023/02/01 01:14:40;;;;;;;0.90;0.90;;;;;;;;;;5074419;28;20040;-71
2023/02/01 01:17:09;;;;;;;3.17;1.25;;;;;;;;;;5070225;28;20044;-71
2023/02/01 01:19:37;;;;;;;1.73;0.95;;;;;;;;;;5069860;28;20053;-70
2023/02/01 01:22:05;;;;;;;0.95;0.77;;;;;;;;;;5074441;28;20127;-71
2023/02/01 01:24:34;;;;;;;2.75;0.68;;;;;;;;;;5069419;28;20086;-71
2023/02/01 01:27:02;;;;;;;0.57;0.43;;;;;;;;;;5067945;28;20040;-71
2023/02/01 01:29:31;;;;;;;0.20;0.20;;;;;;;;;;5065075;28;20123;-70
2023/02/01 01:32:00;;;;;;;0.73;0.70;;;;;;;;;;5069676;28;20048;-70
2023/02/01 01:34:29;;;;;;;0.57;0.57;;;;;;;;;;5071130;28;20054;-71
2023/02/01 01:36:57;;;;;;;0.60;0.60;;;;;;;;;;5072471;28;20131;-71
2023/02/01 01:39:25;;;;;;;2.15;1.08;;;;;;;;;;5066733;28;20056;-71
2023/02/01 01:41:53;;;;;;;0.90;0.68;;;;;;;;;;5067489;28;20049;-71
2023/02/01 01:44:40;;;;;;;0.50;0.50;;;;;;;;;;5074124;28;20045;-72
2023/02/01 01:47:11;;;;;;;1.63;0.98;;;;;;;;;;5063977;28;20051;-72
2023/02/01 01:49:39;;;;;;;1.90;1.33;;;;;;;;;;5071028;28;20052;-71
2023/02/01 01:52:08;;;;;;;1.33;0.85;;;;;;;;;;5071453;28;20061;-71
2023/02/01 01:54:39;;;;;;;1.77;0.80;;;;;;;;;;5068047;28;20670;-71
2023/02/01 01:57:10;;;;;;;0.75;0.75;;;;;;;;;;5064867;28;20055;-71
2023/02/01 01:59:40;;;;;;;0.43;0.40;;;;;;;;;;5077801;28;20052;-73
2023/02/01 02:02:09;;;;;;;1.17;0.70;;;;;;;;;;5066451;28;20052;-72
2023/02/01 02:04:39;;;;;;;0.60;0.60;;;;;;;;;;5073738;28;20072;-72
2023/02/01 02:07:11;;;;;;;1.35;0.80;;;;;;;;;;5068072;28;20050;-70
2023/02/01 02:09:39;;;;;;;0.40;0.40;;;;;;;;;;5069042;28;20059;-70
2023/02/01 02:12:15;;;;;;;2.38;1.63;;;;;;;;;;5065073;28;20049;-71
2023/02/01 02:14:43;;;;;;;1.75;0.55;;;;;;;;;;5070657;28;20053;-71
2023/02/01 02:17:20;;;;;;;0.47;0.40;;;;;;;;;;5067181;28;20053;-70
2023/02/01 02:20:09;;;;;;;0.85;0.57;;;;;;;;;;5068089;28;20055;-70
2023/02/01 02:22:44;;;;;;;1.42;1.27;;;;;;;;;;5069251;28;20041;-69
2023/02/01 02:25:40;;;;;;;0.65;0.65;;;;;;;;;;5078183;28;20563;-71
2023/02/01 02:28:16;;;;;;;0.90;0.63;;;;;;;;;;5019183;28;20041;-70
2023/02/01 02:30:52;;;;;;;0.68;0.68;;;;;;;;;;5063368;28;20509;-72
2023/02/01 02:33:36;;;;;;;1.08;0.95;;;;;;;;;;5067222;28;20100;-71
2023/02/01 02:36:09;;;;;;;0.80;0.75;;;;;;;;;;5071694;28;20393;-71
2023/02/01 02:38:42;;;;;;;1.20;0.90;;;;;;;;;;5071661;28;20044;-70
2023/02/01 02:47:23;;;;;;;2.58;1.27;;;;;;;;;;5084099;28;20045;-71
2023/02/01 02:55:40;;;;;;;3.17;0.98;;;;;;;;;;5076583;28;20075;-71
2023/02/01 03:06:29;;;;;;;2.10;0.82;;;;;;;;;;5075385;28;20053;-70
2023/02/01 03:08:59;;;;;;;2.30;1.10;;;;;;;;;;5073010;28;20060;-71
2023/02/01 03:12:55;;;;;;;1.15;0.60;;;;;;;;;;5077736;28;20071;-70
2023/02/01 03:14:16;;;;;;;0.50;0.50;;;;;;;;;;5070480;28;20045;-70
2023/02/01 03:16:47;;;;;;;0.40;0.40;;;;;;;;;;5071276;28;20532;-70
2023/02/01 03:19:17;;;;;;;1.52;0.35;;;;;;;;;;5075378;28;20059;-69
2023/02/01 03:21:49;;;;;;;2.17;0.60;;;;;;;;;;5075016;28;20059;-70
2023/02/01 03:24:20;;;;;;;2.90;1.13;;;;;;;;;;5076281;28;20048;-70
2023/02/01 03:26:51;;;;;;;1.95;0.93;;;;;;;;;;5067654;28;20056;-70
2023/02/01 03:29:22;;;;;;;2.22;0.85;;;;;;;;;;5069206;28;20048;-71
2023/02/01 03:31:51;;;;;;;0.28;0.22;;;;;;;;;;5075496;28;20373;-70
2023/02/01 03:34:20;;;;;;;0.73;0.65;;;;;;;;;;5071511;28;20040;-70
2023/02/01 03:36:51;;;;;;;1.05;1.00;;;;;;;;;;5064484;28;20057;-70
2023/02/01 03:39:22;;;;;;;1.05;1.00;;;;;;;;;;5073153;28;20489;-71
2023/02/01 03:41:52;;;;;;;4.40;1.30;;;;;;;;;;5071385;28;20050;-70
2023/02/01 03:44:22;;;;;;;1.13;0.45;;;;;;;;;;5076398;28;20056;-71
2023/02/01 03:46:52;;;;;;;0.40;0.40;;;;;;;;;;5081014;28;20040;-71
2023/02/01 03:49:23;;;;;;;1.00;1.00;;;;;;;;;;5069342;28;20048;-71
2023/02/01 03:51:54;;;;;;;3.85;0.90;;;;;;;;;;5070900;28;20169;-71
2023/02/01 03:54:22;;;;;;;3.45;0.65;;;;;;;;;;5077800;28;20040;-70
2023/02/01 03:56:52;;;;;;;1.23;0.70;;;;;;;;;;5076973;28;20049;-71
2023/02/01 03:59:20;;;;;;;2.05;0.95;;;;;;;;;;5070711;28;20470;-70
2023/02/01 04:01:48;;;;;;;0.77;0.77;;;;;;;;;;5068840;28;20483;-73
2023/02/01 04:04:19;;;;;;;1.55;1.00;;;;;;;;;;5076446;28;20052;-71
2023/02/01 04:06:48;;;;;;;2.85;0.95;;;;;;;;;;5072346;28;20094;-70
2023/02/01 04:09:21;;;;;;;1.08;0.88;;;;;;;;;;5072228;28;20095;-71
2023/02/01 04:11:49;;;;;;;1.08;0.98;;;;;;;;;;5073280;28;21403;-71
2023/02/01 04:14:18;;;;;;;1.65;0.82;;;;;;;;;;5072239;28;20040;-70
2023/02/01 04:16:46;;;;;;;0.65;0.55;;;;;;;;;;5067018;28;20052;-71
2023/02/01 04:19:15;;;;;;;0.68;0.50;;;;;;;;;;5069644;28;20040;-70
2023/02/01 04:21:43;;;;;;;0.43;0.35;;;;;;;;;;5072120;28;20056;-71
2023/02/01 04:24:11;;;;;;;0.57;0.47;;;;;;;;;;5072101;28;20055;-70
2023/02/01 04:26:41;;;;;;;0.80;0.45;;;;;;;;;;5069883;28;20052;-72
2023/02/01 04:29:10;;;;;;;2.15;1.02;;;;;;;;;;5077899;28;20101;-71
2023/02/01 04:31:38;;;;;;;1.60;0.68;;;;;;;;;;5075999;28;20052;-71
2023/02/01 04:34:07;;;;;;;1.00;0.75;;;;;;;;;;5073482;28;20048;-72
2023/02/01 04:36:35;;;;;;;0.40;0.40;;;;;;;;;;5071083;28;20040;-71
2023/02/01 04:39:03;;;;;;;0.98;0.75;;;;;;;;;;5079425;28;20051;-71
2023/02/01 04:41:32;;;;;;;0.52;0.52;;;;;;;;;;5073275;28;20044;-73
2023/02/01 04:44:01;;;;;;;1.65;1.20;;;;;;;;;;5083560;28;20048;-71
2023/02/01 04:46:29;;;;;;;1.05;0.40;;;;;;;;;;5069834;28;20048;-71
2023/02/01 04:48:58;;;;;;;0.68;0.68;;;;;;;;;;5069412;28;20080;-70
2023/02/01 04:51:26;;;;;;;0.65;0.65;;;;;;;;;;5079338;28;20423;-70
2023/02/01 04:53:55;;;;;;;0.57;0.57;;;;;;;;;;5075276;28;20055;-70
2023/02/01 04:56:24;;;;;;;0.65;0.65;;;;;;;;;;5075327;28;20063;-70
2023/02/01 04:58:52;;;;;;;2.63;0.82;;;;;;;;;;5069479;28;20059;-71
2023/02/01 05:01:21;;;;;;;1.90;0.82;;;;;;;;;;5076829;28;20048;-70
2023/02/01 05:03:50;;;;;;;3.63;0.57;;;;;;;;;;5071789;28;20142;-71
2023/02/01 05:06:18;;;;;;;1.77;0.73;;;;;;;;;;5072426;28;20409;-71
2023/02/01 05:08:46;;;;;;;1.83;1.02;;;;;;;;;;5073696;28;20044;-70
2023/02/01 05:13:57;;;;;;;2.05;1.40;;;;;;;;;;5068344;28;20052;-71
2023/02/01 05:16:27;;;;;;;0.63;0.60;;;;;;;;;;5069576;28;20048;-71
2023/02/01 05:18:55;;;;;;;1.00;0.98;;;;;;;;;;5066882;28;20047;-70
2023/02/01 05:21:23;;;;;;;3.03;0.80;;;;;;;;;;5069852;28;20044;-69
2023/02/01 05:24:10;;;;;;;2.78;1.27;;;;;;;;;;5069186;28;20063;-70
2023/02/01 05:26:39;;;;;;;0.90;0.73;;;;;;;;;;5065914;28;20055;-70
2023/02/01 05:29:08;;;;;;;0.32;0.32;;;;;;;;;;5074903;28;20052;-71
2023/02/01 05:31:38;;;;;;;1.88;0.90;;;;;;;;;;5064450;28;20049;-71
2023/02/01 05:34:06;;;;;;;2.92;0.73;;;;;;;;;;5060708;28;20048;-72
2023/02/01 05:36:35;;;;;;;1.20;1.02;;;;;;;;;;5080534;28;20075;-70
2023/02/01 05:39:03;;;;;;;0.85;0.75;;;;;;;;;;5062219;28;20491;-70
2023/02/01 05:41:31;;;;;;;3.35;1.35;;;;;;;;;;5066628;28;20061;-71
2023/02/01 05:43:59;;;;;;;1.05;0.60;;;;;;;;;;5071319;28;20064;-70
2023/02/01 05:46:28;;;;;;;1.55;1.20;;;;;;;;;;5067241;28;20447;-70
2023/02/01 05:48:57;;;;;;;0.40;0.30;;;;;;;;;;5066136;28;20489;-70
2023/02/01 05:51:26;;;;;;;1.42;1.02;;;;;;;;;;5074715;28;20045;-69
2023/02/01 05:53:54;;;;;;;0.98;0.95;;;;;;;;;;5071724;28;20048;-70
2023/02/01 05:56:22;;;;;;;1.42;0.70;;;;;;;;;;5070592;28;20040;-70
2023/02/01 05:58:51;;;;;;;1.50;0.85;;;;;;;;;;5062927;28;20044;-70
2023/02/01 06:01:19;;;;;;;1.88;0.90;;;;;;;;;;5069439;28;20052;-70
2023/02/01 06:03:47;;;;;;;0.77;0.77;;;;;;;;;;5067129;28;20516;-70
2023/02/01 06:06:18;;;;;;;0.68;0.68;;;;;;;;;;5069521;28;20075;-71
2023/02/01 06:08:47;;;;;;;3.28;1.05;;;;;;;;;;5068561;28;20076;-70
2023/02/01 06:11:15;;;;;;;1.20;1.10;;;;;;;;;;5070931;28;20045;-70
2023/02/01 06:13:58;;;;;;;1.25;0.60;;;;;;;;;;5069888;28;20054;-69
2023/02/01 06:16:27;;;;;;;1.50;0.88;;;;;;;;;;5074985;28;20117;-71
2023/02/01 06:18:55;;;;;;;1.15;0.65;;;;;;;;;;5070188;28;20045;-69
2023/02/01 06:21:25;;;;;;;2.17;1.27;;;;;;;;;;5066818;28;20412;-69
2023/02/01 06:23:53;;;;;;;0.57;0.50;;;;;;;;;;5068344;28;20048;-69
2023/02/01 06:26:22;;;;;;;1.77;0.90;;;;;;;;;;5067857;28;20052;-70
2023/02/01 06:28:51;;;;;;;2.05;0.90;;;;;;;;;;5068636;28;20428;-70
2023/02/01 06:31:19;;;;;;;1.90;0.80;;;;;;;;;;5071754;28;20054;-71
2023/02/01 06:33:48;;;;;;;1.80;1.08;;;;;;;;;;5083039;28;20053;-69
2023/02/01 06:36:18;;;;;;;0.82;0.75;;;;;;;;;;5073441;28;20044;-70
2023/02/01 06:38:48;;;;;;;4.88;2.40;;;;;;;;;;5072140;28;20067;-69
2023/02/01 06:41:16;;;;;;;0.90;0.80;;;;;;;;;;5072081;28;20147;-68
2023/02/01 06:43:45;;;;;;;1.35;1.25;;;;;;;;;;5070679;28;20127;-69
2023/02/01 06:46:14;;;;;;;0.85;0.85;;;;;;;;;;5076186;28;20047;-69
2023/02/01 06:48:43;;;;;;;1.75;1.17;;;;;;;;;;5072715;28;20051;-71
2023/02/01 06:51:22;;;;;;;0.85;0.75;;;;;;;;;;5074714;28;20067;-68
2023/02/01 06:53:52;;;;;;;3.42;0.50;;;;;;;;;;5073439;28;20044;-68
2023/02/01 06:56:20;;;;;;;3.22;0.60;;;;;;;;;;5073926;28;20049;-68
2023/02/01 06:58:49;;;;;;;0.68;0.68;;;;;;;;;;5077645;28;20064;-69
2023/02/01 07:01:18;;;;;;;0.80;0.80;;;;;;;;;;5072956;28;20131;-68
2023/02/01 07:03:48;;;;;;;0.32;0.32;;;;;;;;;;5071270;28;20044;-68
2023/02/01 07:06:17;;;;;;;4.88;0.60;;;;;;;;;;5081881;28;20201;-69
2023/02/01 07:08:45;;;;;;;0.93;0.93;;;;;;;;;;5080236;28;20059;-69
2023/02/01 07:11:15;;;;;;;2.05;0.75;;;;;;;;;;5072985;28;20051;-69
2023/02/01 07:13:44;;;;;;;0.50;0.50;;;;;;;;;;5073359;28;20060;-68
2023/02/01 07:16:13;;;;;;;4.00;0.73;;;;;;;;;;5058907;28;20047;-68
2023/02/01 07:18:41;;;;;;;1.63;1.05;;;;;;;;;;5074562;28;20147;-69
2023/02/01 07:21:10;;;;;;;1.15;0.90;;;;;;;;;;5072289;28;20057;-69
2023/02/01 07:23:39;;;;;;;0.43;0.43;;;;;;;;;;5072568;28;20058;-69
2023/02/01 07:26:08;;;;;;;2.38;0.80;;;;;;;;;;5074652;28;20475;-69
2023/02/01 07:28:38;;;;;;;1.70;1.25;;;;;;;;;;5074594;28;20143;-69
2023/02/01 07:31:06;;;;;;;0.85;0.77;;;;;;;;;;5069779;28;20055;-69
2023/02/01 07:33:35;;;;;;;0.50;0.50;;;;;;;;;;5070943;28;20041;-69
2023/02/01 07:36:04;;;;;;;0.90;0.80;;;;;;;;;;5069461;28;20511;-70
2023/02/01 07:38:33;;;;;;;3.00;0.47;;;;;;;;;;5072905;28;20051;-69
2023/02/01 07:41:01;;;;;;;1.65;0.68;;;;;;;;;;5070772;28;20040;-69
2023/02/01 07:43:30;;;;;;;1.08;0.50;;;;;;;;;;5069606;28;20127;-68
2023/02/01 07:46:00;;;;;;;0.30;0.30;;;;;;;;;;5072212;28;20505;-70
2023/02/01 07:48:29;;;;;;;0.50;0.50;;;;;;;;;;5074009;28;20044;-69
2023/02/01 07:51:00;;;;;;;0.50;0.50;;;;;;;;;;5074257;28;20382;-69
2023/02/01 07:53:30;;;;;;;1.80;1.08;;;;;;;;;;5073211;28;20141;-69
2023/02/01 07:55:58;;;;;;;1.20;0.40;;;;;;;;;;5070021;28;20049;-69
2023/02/01 07:58:27;;;;;;;3.75;1.63;;;;;;;;;;5073269;28;20074;-69
2023/02/01 08:03:43;;;;;;;1.60;0.93;;;;;;;;;;5071654;28;20052;-65
2023/02/01 08:06:11;;;;;;;0.77;0.50;;;;;;;;;;5068727;28;20045;-65
2023/02/01 08:08:40;;;;;;;2.60;0.80;;;;;;;;;;5073768;28;20131;-64
2023/02/01 08:11:08;;;;;;;0.40;0.40;;;;;;;;;;5073462;28;20131;-65
2023/02/01 08:13:36;;;;;;;0.82;0.50;;;;;;;;;;5072258;28;20055;-66
2023/02/01 08:16:07;;;;;;;1.17;0.68;;;;;;;;;;5056535;28;20049;-67
2023/02/01 08:18:35;;;;;;;0.43;0.32;;;;;;;;;;5067117;28;20074;-68
2023/02/01 08:21:06;;;;;;;0.28;0.28;;;;;;;;;;5069568;28;20047;-65
2023/02/01 08:23:35;;;;;;;0.65;0.60;;;;;;;;;;5071716;28;20047;-67
2023/02/01 08:26:07;;;;;;;1.98;0.80;;;;;;;;;;5069748;28;20449;-65
2023/02/01 08:28:35;;;;;;;0.40;0.40;;;;;;;;;;5071253;28;20474;-65
2023/02/01 08:31:06;;;;;;;0.90;0.73;;;;;;;;;;5069995;28;20083;-65
2023/02/01 08:33:35;;;;;;;0.30;0.30;;;;;;;;;;5073466;28;20540;-65
2023/02/01 08:36:06;;;;;;;0.30;0.22;;;;;;;;;;5072929;28;20106;-65
2023/02/01 08:38:36;;;;;;;0.80;0.70;;;;;;;;;;5070389;28;20058;-65
2023/02/01 08:41:10;;;;;;;1.95;0.30;;;;;;;;;;5074205;28;20036;-65
2023/02/01 08:43:39;;;;;;;0.30;0.30;;;;;;;;;;5067950;28;20079;-66
2023/02/01 08:46:07;;;;;;;1.10;0.75;;;;;;;;;;5069384;28;20131;-67
2023/02/01 08:48:36;;;;;;;1.73;1.13;;;;;;;;;;5067750;28;20040;-65
2023/02/01 08:51:07;;;;;;;1.90;0.85;;;;;;;;;;5069720;28;20083;-64
2023/02/01 08:53:36;;;;;;;0.63;0.63;;;;;;;;;;5071443;28;20052;-66
2023/02/01 08:56:04;;;;;;;0.43;0.35;;;;;;;;;;5070780;28;20556;-65
2023/02/01 08:58:33;;;;;;;1.20;1.05;;;;;;;;;;5068981;28;20071;-64
2023/02/01 09:01:04;;;;;;;3.03;0.65;;;;;;;;;;5070593;28;20504;-66
2023/02/01 09:03:33;;;;;;;0.70;0.35;;;;;;;;;;5071538;28;20055;-67
2023/02/01 09:06:02;;;;;;;0.40;0.40;;;;;;;;;;5073951;28;20036;-68
2023/02/01 09:08:32;;;;;;;0.82;0.80;;;;;;;;;;5068606;28;20053;-66
2023/02/01 09:11:01;;;;;;;3.25;1.02;;;;;;;;;;5069794;28;20416;-67
2023/02/01 09:13:31;;;;;;;1.85;1.13;;;;;;;;;;5067629;28;20052;-66
2023/02/01 09:15:59;;;;;;;1.77;0.68;;;;;;;;;;5070363;28;20052;-67
2023/02/01 09:18:28;;;;;;;0.60;0.40;;;;;;;;;;5065680;28;20446;-66
2023/02/01 09:20:57;;;;;;;2.03;0.90;;;;;;;;;;5068551;28;20070;-66
2023/02/01 09:23:25;;;;;;;0.88;0.55;;;;;;;;;;5072014;28;20055;-65
2023/02/01 09:25:56;;;;;;;1.65;1.05;;;;;;;;;;5070196;28;20057;-66
2023/02/01 09:28:24;;;;;;;0.68;0.68;;;;;;;;;;5067332;28;20044;-66
2023/02/01 09:30:56;;;;;;;0.75;0.75;;;;;;;;;;5065769;28;20128;-66
2023/02/01 09:33:25;;;;;;;2.30;1.10;;;;;;;;;;5069996;28;20048;-67
2023/02/01 09:35:57;;;;;;;0.10;0.10;;;;;;;;;;5070287;28;20070;-65
2023/02/01 09:38:27;;;;;;;0.40;0.40;;;;;;;;;;5077594;28;20519;-66
2023/02/01 09:40:57;;;;;;;1.13;0.47;;;;;;;;;;5077919;28;20055;-66
2023/02/01 09:43:32;;;;;;;0.30;0.30;;;;;;;;;;5077530;28;20488;-66
2023/02/01 09:46:05;;;;;;;0.90;0.73;;;;;;;;;;5066364;28;20064;-66
2023/02/01 09:48:35;;;;;;;1.83;0.80;;;;;;;;;;5062700;28;20041;-67
2023/02/01 09:51:05;;;;;;;0.95;0.60;;;;;;;;;;5074065;28;20098;-66
2023/02/01 09:53:36;;;;;;;0.77;0.38;;;;;;;;;;5080013;28;20123;-67
2023/02/01 09:56:07;;;;;;;0.65;0.63;;;;;;;;;;5073228;28;20045;-66
2023/02/01 09:58:38;;;;;;;0.80;0.80;;;;;;;;;;5077358;28;20049;-68
2023/02/01 10:01:11;;;;;;;4.53;0.85;;;;;;;;;;5072266;28;20441;-67
2023/02/01 10:03:40;;;;;;;0.30;0.30;;;;;;;;;;5069971;28;20057;-66
2023/02/01 10:06:17;;;;;;;1.25;0.85;;;;;;;;;;5072383;28;20044;-68
2023/02/01 10:09:04;;;;;;;3.08;1.20;;;;;;;;;;5073087;28;20187;-67
2023/02/01 10:11:51;;;;;;;0.20;0.20;;;;;;;;;;5058827;28;20094;-67
2023/02/01 10:14:30;;;;;;;1.35;0.40;;;;;;;;;;5071045;28;20080;-66
2023/02/01 10:17:01;;;;;;;0.35;0.20;;;;;;;;;;5073331;28;20083;-66
2023/02/01 10:19:37;;;;;;;2.83;0.98;;;;;;;;;;5072727;28;20155;-67
2023/02/01 10:22:08;;;;;;;2.20;0.30;;;;;;;;;;5072642;28;20098;-67
2023/02/01 10:24:39;;;;;;;0.45;0.45;;;;;;;;;;5073667;28;20098;-67
2023/02/01 10:27:15;;;;;;;0.85;0.82;;;;;;;;;;5069070;28;20041;-67
2023/02/01 10:29:45;;;;;;;0.40;0.40;;;;;;;;;;5073107;28;20412;-69
2023/02/01 10:32:15;;;;;;;0.35;0.35;;;;;;;;;;5067893;28;20047;-67
2023/02/01 10:34:46;;;;;;;0.63;0.30;;;;;;;;;;5071729;28;20135;-64
2023/02/01 10:37:19;;;;;;;0.68;0.35;;;;;;;;;;5071279;28;20492;-66
2023/02/01 10:39:49;;;;;;;0.47;0.40;;;;;;;;;;5073796;28;20551;-64
2023/02/01 10:42:20;;;;;;;0.85;0.77;;;;;;;;;;5071964;28;20079;-65
2023/02/01 10:44:49;;;;;;;2.55;1.23;;;;;;;;;;5070871;28;20139;-67
2023/02/01 10:47:18;;;;;;;6.15;0.80;;;;;;;;;;5074452;28;20048;-64
2023/02/01 10:49:51;;;;;;;0.40;0.40;;;;;;;;;;5071233;28;20132;-66
2023/02/01 10:52:22;;;;;;;0.30;0.30;;;;;;;;;;5073473;28;20500;-66
2023/02/01 10:54:50;;;;;;;1.10;0.80;;;;;;;;;;5071605;28;20071;-66
2023/02/01 10:57:25;;;;;;;1.60;0.90;;;;;;;;;;5069080;28;20049;-65
2023/02/01 10:59:54;;;;;;;0.50;0.50;;;;;;;;;;5073851;28;20045;-66
2023/02/01 11:02:27;;;;;;;0.30;0.30;;;;;;;;;;5069448;28;21853;-65
2023/02/01 11:05:01;;;;;;;0.55;0.55;;;;;;;;;;5076311;28;20061;-64
2023/02/01 11:07:30;;;;;;;0.20;0.20;;;;;;;;;;5073270;28;20386;-69
2023/02/01 11:09:58;;;;;;;1.23;0.63;;;;;;;;;;5074634;28;20052;-66
2023/02/01 11:12:31;;;;;;;0.25;0.25;;;;;;;;;;5089880;28;20412;-66
2023/02/01 11:15:01;;;;;;;1.48;0.95;;;;;;;;;;5069347;28;20083;-66
2023/02/01 11:17:30;;;;;;;0.80;0.80;;;;;;;;;;5071377;28;20045;-69
2023/02/01 11:19:59;;;;;;;0.70;0.63;;;;;;;;;;5079253;28;20044;-68
2023/02/01 11:22:29;;;;;;;0.90;0.82;;;;;;;;;;5072648;28;20051;-68
2023/02/01 11:24:58;;;;;;;0.22;0.20;;;;;;;;;;5078486;28;20088;-66
2023/02/01 11:27:27;;;;;;;0.40;0.40;;;;;;;;;;5072381;28;20447;-66
2023/02/01 11:30:00;;;;;;;1.00;0.52;;;;;;;;;;5069406;28;20053;-66
2023/02/01 11:32:29;;;;;;;0.20;0.20;;;;;;;;;;5070899;28;20110;-66
2023/02/01 11:35:00;;;;;;;1.83;1.27;;;;;;;;;;5071364;28;20051;-67
2023/02/01 11:37:30;;;;;;;0.30;0.30;;;;;;;;;;5070670;28;20048;-67
2023/02/01 11:39:59;;;;;;;0.52;0.50;;;;;;;;;;5072121;28;20052;-68
2023/02/01 11:42:28;;;;;;;0.40;0.40;;;;;;;;;;5066256;28;20041;-67
2023/02/01 11:45:18;;;;;;;0.43;0.43;;;;;;;;;;5072275;28;20554;-67
2023/02/01 11:47:47;;;;;;;1.02;1.02;;;;;;;;;;5069885;28;20075;-66
2023/02/01 11:50:17;;;;;;;1.45;1.05;;;;;;;;;;5066279;28;20048;-67
2023/02/01 11:52:52;;;;;;;0.45;0.45;;;;;;;;;;5070855;28;20060;-65
2023/02/01 11:55:45;;;;;;;1.17;0.52;;;;;;;;;;5070793;28;20131;-65
2023/02/01 11:58:21;;;;;;;0.52;0.52;;;;;;;;;;5046478;28;20095;-65
2023/02/01 12:00:59;;;;;;;2.17;1.00;;;;;;;;;;5067683;28;20048;-66
2023/02/01 12:03:52;;;;;;;1.60;0.65;;;;;;;;;;5075266;28;20138;-66
2023/02/01 12:06:26;;;;;;;4.95;1.88;;;;;;;;;;5081358;28;20044;-64
2023/02/01 12:09:04;;;;;;;0.82;0.70;;;;;;;;;;5064163;28;20064;-66
2023/02/01 12:11:41;;;;;;;0.57;0.57;;;;;;;;;;5072675;28;20052;-67
2023/02/01 12:14:17;;;;;;;0.52;0.52;;;;;;;;;;5071857;28;20044;-65
2023/02/01 12:16:55;;;;;;;0.35;0.35;;;;;;;;;;5072455;28;20059;-67
2023/02/01 12:19:32;;;;;;;0.30;0.30;;;;;;;;;;5064582;28;20051;-66
2023/02/01 12:22:07;;;;;;;2.60;0.93;;;;;;;;;;5063061;28;20135;-68
2023/02/01 12:24:43;;;;;;;1.35;0.50;;;;;;;;;;5070967;28;20530;-69
2023/02/01 12:27:34;;;;;;;0.57;0.57;;;;;;;;;;5071102;28;20040;-68
2023/02/01 12:30:19;;;;;;;2.30;1.15;;;;;;;;;;5067279;28;20146;-67
2023/02/01 12:32:59;;;;;;;1.02;0.80;;;;;;;;;;5072449;28;20523;-68
2023/02/01 12:35:39;;;;;;;2.95;1.10;;;;;;;;;;5071768;28;20540;-68
2023/02/01 12:38:16;;;;;;;1.00;0.55;;;;;;;;;;5071224;28;20415;-68
2023/02/01 12:40:51;;;;;;;0.75;0.47;;;;;;;;;;5064591;28;20067;-68
2023/02/01 12:43:24;;;;;;;0.80;0.80;;;;;;;;;;5067804;28;20045;-68
2023/02/01 12:45:56;;;;;;;1.00;0.90;;;;;;;;;;5069988;28;20055;-71
2023/02/01 12:48:30;;;;;;;1.05;1.05;;;;;;;;;;5055678;28;20061;-67
2023/02/01 12:51:01;;;;;;;0.40;0.40;;;;;;;;;;5074032;28;20140;-67
2023/02/01 12:53:34;;;;;;;0.52;0.50;;;;;;;;;;5078491;28;20485;-67
2023/02/01 12:56:06;;;;;;;2.38;0.75;;;;;;;;;;5070388;28;20485;-67
2023/02/01 12:58:40;;;;;;;0.63;0.57;;;;;;;;;;5069940;28;20416;-67
2023/02/01 13:01:13;;;;;;;0.30;0.30;;;;;;;;;;5069352;28;20044;-67
2023/02/01 13:03:46;;;;;;;4.20;0.80;;;;;;;;;;5076767;28;20382;-68
2023/02/01 13:06:16;;;;;;;0.70;0.60;;;;;;;;;;5068907;28;20064;-67
2023/02/01 13:08:48;;;;;;;2.45;1.27;;;;;;;;;;5078920;28;20083;-68
2023/02/01 13:11:20;;;;;;;3.72;0.73;;;;;;;;;;5067066;28;20049;-68
2023/02/01 13:13:54;;;;;;;1.17;0.50;;;;;;;;;;5064878;28;20048;-68
2023/02/01 13:16:26;;;;;;;15.80;0.60;;;;;;;;;;5069750;28;20079;-67
2023/02/01 13:19:01;;;;;;;0.40;0.40;;;;;;;;;;5067508;28;20114;-68
2023/02/01 13:21:33;;;;;;;0.63;0.63;;;;;;;;;;5070901;28;20041;-69
2023/02/01 13:24:02;;;;;;;0.60;0.60;;;;;;;;;;5082722;28;20047;-69
2023/02/01 13:26:31;;;;;;;1.40;0.40;;;;;;;;;;5073110;28;20501;-68
2023/02/01 13:29:01;;;;;;;1.73;0.90;;;;;;;;;;5070205;28;20460;-68
2023/02/01 13:31:49;;;;;;;0.98;0.88;;;;;;;;;;5076362;28;20469;-69
2023/02/01 13:34:33;;;;;;;2.45;0.75;;;;;;;;;;5074519;28;20782;-67
2023/02/01 13:37:11;;;;;;;0.32;0.32;;;;;;;;;;5061349;28;20131;-68
2023/02/01 13:39:45;;;;;;;2.30;0.75;;;;;;;;;;5020945;28;20048;-69
2023/02/01 13:42:16;;;;;;;1.53;0.40;;;;;;;;;;5067382;28;20727;-68
2023/02/01 13:44:47;;;;;;;0.40;0.40;;;;;;;;;;5069858;28;20059;-69
2023/02/01 13:47:21;;;;;;;0.80;0.77;;;;;;;;;;5068751;28;20121;-68
2023/02/01 13:49:49;;;;;;;0.50;0.50;;;;;;;;;;5069301;28;20080;-68
2023/02/01 13:52:39;;;;;;;0.88;0.82;;;;;;;;;;5069786;28;20512;-68
2023/02/01 13:55:28;;;;;;;0.75;0.50;;;;;;;;;;5062890;28;20049;-67
2023/02/01 13:58:05;;;;;;;0.57;0.55;;;;;;;;;;5063871;28;20063;-68
2023/02/01 14:00:35;;;;;;;3.88;1.17;;;;;;;;;;5071228;28;20127;-68
2023/02/01 14:03:15;;;;;;;13.45;0.68;;;;;;;;;;5068268;28;20052;-68
2023/02/01 14:06:03;;;;;;;0.45;0.40;;;;;;;;;;5070145;28;20067;-68
2023/02/01 14:08:40;;;;;;;2.20;0.80;;;;;;;;;;5058044;28;20049;-68
2023/02/01 14:11:30;;;;;;;0.35;0.35;;;;;;;;;;5072497;28;20160;-69
2023/02/01 14:14:08;;;;;;;0.28;0.28;;;;;;;;;;5068913;28;20055;-69
2023/02/01 14:16:37;;;;;;;1.10;0.77;;;;;;;;;;5066797;28;20044;-68
2023/02/01 14:19:09;;;;;;;1.10;0.95;;;;;;;;;;5060916;28;20509;-69
2023/02/01 14:21:48;;;;;;;1.73;1.08;;;;;;;;;;5068100;28;20489;-69
2023/02/01 14:24:21;;;;;;;0.35;0.35;;;;;;;;;;5071959;28;20123;-68
2023/02/01 14:26:52;;;;;;;1.33;0.80;;;;;;;;;;5064668;28;20060;-68
2023/02/01 14:29:27;;;;;;;0.45;0.45;;;;;;;;;;5070255;28;20076;-70
2023/02/01 14:32:02;;;;;;;1.00;0.68;;;;;;;;;;5062839;28;20053;-64
2023/02/01 14:34:33;;;;;;;0.40;0.40;;;;;;;;;;5065930;28;20044;-61
2023/02/01 14:37:03;;;;;;;1.13;1.13;;;;;;;;;;5067504;28;20133;-63
2023/02/01 14:39:37;;;;;;;1.65;1.25;;;;;;;;;;5069258;28;20060;-63
2023/02/01 14:42:19;;;;;;;1.63;0.55;;;;;;;;;;5079228;28;20079;-65
2023/02/01 14:44:48;;;;;;;0.65;0.60;;;;;;;;;;5067174;28;20157;-64
2023/02/01 14:47:28;;;;;;;1.13;1.05;;;;;;;;;;5069251;28;20102;-63
2023/02/01 14:49:58;;;;;;;1.35;0.93;;;;;;;;;;5075270;28;20489;-69
2023/02/01 14:52:31;;;;;;;0.32;0.32;;;;;;;;;;5073366;28;20047;-69
2023/02/01 14:55:03;;;;;;;0.45;0.45;;;;;;;;;;5067647;28;20044;-69
2023/02/01 14:57:36;;;;;;;1.42;1.27;;;;;;;;;;5066835;28;20053;-68
2023/02/01 15:00:10;;;;;;;0.28;0.28;;;;;;;;;;5066838;28;20060;-70
2023/02/01 15:02:41;;;;;;;1.13;0.50;;;;;;;;;;5070992;28;20052;-69
2023/02/01 15:05:22;;;;;;;1.05;0.93;;;;;;;;;;5071555;28;20049;-69
2023/02/01 15:07:52;;;;;;;1.35;0.75;;;;;;;;;;5067502;28;20075;-69
2023/02/01 15:10:21;;;;;;;1.40;0.95;;;;;;;;;;5069527;28;20051;-69
2023/02/01 15:12:51;;;;;;;3.85;0.55;;;;;;;;;;5068170;28;20397;-69
2023/02/01 15:15:21;;;;;;;0.57;0.50;;;;;;;;;;5064169;28;20041;-69
2023/02/01 15:17:54;;;;;;;0.75;0.73;;;;;;;;;;5066822;28;20080;-67
2023/02/01 15:20:24;;;;;;;1.00;0.85;;;;;;;;;;5070121;28;20481;-68
2023/02/01 15:22:55;;;;;;;0.43;0.43;;;;;;;;;;5068250;28;20102;-68
2023/02/01 15:25:25;;;;;;;0.55;0.43;;;;;;;;;;5073138;28;20131;-67
2023/02/01 15:27:55;;;;;;;0.95;0.40;;;;;;;;;;5075372;28;20051;-67
2023/02/01 15:30:25;;;;;;;0.70;0.70;;;;;;;;;;5071392;28;20540;-67
2023/02/01 15:33:06;;;;;;;1.23;0.70;;;;;;;;;;5073444;28;20052;-67